createdAt,value
2024-02-16T07:31:10.841Z,79.62
2024-02-16T07:36:47.961Z,79.14
2024-02-16T07:42:06.645Z,78.77
2024-02-16T07:45:01.892Z,78.13
2024-02-16T07:56:53.053Z,77.46
2024-02-16T08:11:13.417Z,76.02
2024-02-16T08:14:08.876Z,76.20
2024-02-16T08:17:11.647Z,75.32
2024-02-16T08:20:35.456Z,75.50
2024-02-16T08:23:44.455Z,75.15
2024-02-16T08:26:29.687Z,75.20
2024-02-16T08:29:02.849Z,75.62
2024-02-16T08:31:32.917Z,75.47
2024-02-16T08:37:24.010Z,75.49
2024-02-16T08:40:14.591Z,75.49
2024-02-16T08:42:48.251Z,75.59
2024-02-16T08:48:38.728Z,74.96
2024-02-16T08:51:19.291Z,76.01
2024-02-16T08:54:38.806Z,76.19
2024-02-16T09:00:41.398Z,75.67
2024-02-16T09:06:14.141Z,76.59
2024-02-16T09:09:00.423Z,77.49
2024-02-16T09:14:21.265Z,78.43
2024-02-16T09:17:00.420Z,78.75
2024-02-16T09:19:48.257Z,78.28
2024-02-16T09:28:47.271Z,77.68
2024-02-16T09:31:42.343Z,77.22
2024-02-16T09:34:10.355Z,76.15
2024-02-16T09:36:39.045Z,75.41
2024-02-16T09:39:07.387Z,74.63
2024-02-16T09:41:51.757Z,74.39
2024-02-16T09:44:27.792Z,73.45
2024-02-16T09:47:03.725Z,72.03
2024-02-16T09:49:38.980Z,68.09
2024-02-16T09:52:12.007Z,59.14
2024-02-16T09:54:40.946Z,57.83
2024-02-16T09:57:09.492Z,58.81
2024-02-16T09:59:38.974Z,58.95
2024-02-16T10:02:08.467Z,57.70
2024-02-16T10:04:37.434Z,55.91
2024-02-16T10:07:10.525Z,52.87
2024-02-16T10:09:42.599Z,48.57
2024-02-16T10:12:11.666Z,45.72
2024-02-16T10:14:42.880Z,46.04
2024-02-16T10:17:11.170Z,46.71
2024-02-16T10:19:41.862Z,48.05
2024-02-16T10:22:11.806Z,49.59
2024-02-16T10:24:40.831Z,51.41
2024-02-16T10:27:32.037Z,53.70
2024-02-16T10:36:37.657Z,60.57
2024-02-16T11:04:57.379Z,68.02
2024-02-16T11:07:38.827Z,68.03
2024-02-16T11:13:53.985Z,68.21
2024-02-16T11:16:43.514Z,67.48
2024-02-16T11:33:27.135Z,56.25
2024-02-16T11:45:36.686Z,54.30
2024-02-16T11:51:18.682Z,53.45
2024-02-16T11:53:48.568Z,53.93
2024-02-16T11:56:35.686Z,54.14
2024-02-16T11:59:03.943Z,53.35
2024-02-16T12:01:33.325Z,53.25
2024-02-16T12:04:01.597Z,53.07
2024-02-16T12:13:48.724Z,48.53
2024-02-16T12:17:56.969Z,44.74
2024-02-16T12:20:34.684Z,44.42
2024-02-16T12:23:46.119Z,45.94
2024-02-16T12:45:29.516Z,52.55
2024-02-16T13:00:55.156Z,51.64
2024-02-16T13:11:16.493Z,51.44
2024-02-16T13:34:23.120Z,56.18
2024-02-16T13:36:51.589Z,56.51
2024-02-16T13:39:28.498Z,56.79
2024-02-16T13:42:03.841Z,56.65
2024-02-16T13:44:47.622Z,57.67
2024-02-16T13:47:19.234Z,57.85
2024-02-16T13:49:48.641Z,58.60
2024-02-16T13:52:16.856Z,59.36
2024-02-16T13:54:45.263Z,59.74
2024-02-16T13:57:15.427Z,59.79
2024-02-16T13:59:44.254Z,59.69
2024-02-16T14:02:12.436Z,60.42
2024-02-16T14:04:42.002Z,60.69
2024-02-16T14:07:11.473Z,60.62
2024-02-16T14:09:40.041Z,60.83
2024-02-16T14:12:08.733Z,61.51
2024-02-16T14:14:40.576Z,61.75
2024-02-16T14:17:11.868Z,62.18
2024-02-16T14:19:39.985Z,62.86
2024-02-16T14:22:08.884Z,63.51
2024-02-16T14:24:36.949Z,63.85
2024-02-16T14:27:05.948Z,63.58
2024-02-16T14:29:34.223Z,64.04
2024-02-16T14:32:04.236Z,65.02
2024-02-16T14:34:32.622Z,65.14
2024-02-16T14:37:02.355Z,65.47
2024-02-16T14:39:32.384Z,65.68
2024-02-16T14:42:00.447Z,65.86
2024-02-16T14:44:28.826Z,66.63
2024-02-16T14:46:58.286Z,67.22
2024-02-16T14:49:28.031Z,67.55
2024-02-16T14:51:56.071Z,68.52
2024-02-16T14:54:28.403Z,69.03
2024-02-16T14:56:56.912Z,69.65
2024-02-16T14:59:25.529Z,70.79
2024-02-16T15:01:54.092Z,71.42
2024-02-16T15:04:22.707Z,71.89
2024-02-16T15:06:52.090Z,72.07
2024-02-16T15:09:20.260Z,72.42
2024-02-16T15:11:48.435Z,73.73
2024-02-16T15:14:20.221Z,75.17
2024-02-16T15:16:48.750Z,75.73
2024-02-16T15:19:16.733Z,75.96
2024-02-16T15:21:45.900Z,76.75
2024-02-16T15:24:15.319Z,77.13
2024-02-16T15:26:43.683Z,78.13
2024-02-16T15:29:11.568Z,78.99
2024-02-16T15:31:39.639Z,79.35
2024-02-16T15:34:07.784Z,79.93
2024-02-16T15:36:36.347Z,80.47
2024-02-16T15:39:04.504Z,81.03
2024-02-16T15:41:36.617Z,81.37
2024-02-16T15:44:04.863Z,81.84
2024-02-16T15:46:32.928Z,82.20
2024-02-16T15:49:01.147Z,82.85
2024-02-16T15:51:30.030Z,83.20
2024-02-16T15:53:58.714Z,83.48
2024-02-16T15:56:28.002Z,84.57
2024-02-16T15:59:00.763Z,85.46
2024-02-16T16:01:29.379Z,87.24
2024-02-16T16:03:58.081Z,88.35
2024-02-16T16:06:27.476Z,88.32
2024-02-16T16:08:56.537Z,89.04
2024-02-16T16:11:24.713Z,89.80
2024-02-16T16:13:52.647Z,90.15
2024-02-16T16:16:22.997Z,90.83
2024-02-16T16:18:53.240Z,91.42
2024-02-16T16:21:21.608Z,91.84
2024-02-16T16:23:49.648Z,92.23
2024-02-16T16:26:17.743Z,91.76
2024-02-16T16:28:45.565Z,92.31
2024-02-16T16:31:13.819Z,92.48
2024-02-16T16:33:43.327Z,93.32
2024-02-16T16:36:14.761Z,93.57
2024-02-16T16:38:43.385Z,94.56
2024-02-16T16:41:12.378Z,94.80
2024-02-16T16:43:40.613Z,95.54
2024-02-16T16:46:09.241Z,94.98
2024-02-16T16:48:37.451Z,95.62
2024-02-16T16:51:07.671Z,95.92
2024-02-16T16:53:38.010Z,97.16
2024-02-16T16:56:06.592Z,98.01
2024-02-16T16:58:34.579Z,98.34
2024-02-16T17:01:02.618Z,99.35
2024-02-16T17:03:30.933Z,99.31
2024-02-16T17:05:59.358Z,99.61
2024-02-16T17:08:28.901Z,100.00
2024-02-16T17:10:56.909Z,99.84
2024-02-16T17:13:24.857Z,99.61
2024-02-16T17:15:53.237Z,99.80
2024-02-16T17:18:21.332Z,100.00
2024-02-16T17:20:49.782Z,100.00
2024-02-16T17:23:19.829Z,100.00
2024-02-16T17:25:53.636Z,100.00
2024-02-16T17:28:21.776Z,100.00
2024-02-16T17:30:49.959Z,100.00
2024-02-16T17:33:18.059Z,100.00
2024-02-16T17:35:46.666Z,100.00
2024-02-16T17:38:15.179Z,100.00
2024-02-16T17:40:43.789Z,100.00
2024-02-16T17:43:14.161Z,100.00
2024-02-16T17:45:43.824Z,100.00
2024-02-16T18:32:42.791Z,100.00
2024-02-16T19:56:20.502Z,100.00
2024-02-16T23:06:14.601Z,95.47
